ENY125 KFLL-KCLT
Flight info
| Callsign | ENY125 |
|---|---|
| Flight time | 1h 35m |
| Altitude | 37000 |
| Route | AGERS1 DUCEN Q87 VIYAP CHECR STOCR4 |
| Aircraft | E75L/M-SDE3GILORVW/S |
Departure
| Time | 2026-05-03 22:55 |
|---|---|
| Airport | Fort Lauderdale Hollywood International Airport (KFLL) |
Arrival
| Time | 2026-05-04 00:30 |
|---|---|
| Airport | Charlotte Douglas International Airport (KCLT) |
| Time | Latitude | Longitude | Altitude | Speed | Heading |
|---|---|---|---|---|---|
| 2026-05-03 21:27 | 26.07147 | -80.14731 | 10 ft | 0 kts | 162° |
| 2026-05-03 21:38 | 26.07146 | -80.14731 | 10 ft | 0 kts | 162° |
| 2026-05-03 21:40 | 26.07154 | -80.14733 | 10 ft | 2 kts | 163° |
| 2026-05-03 21:40 | 26.07168 | -80.14738 | 10 ft | 2 kts | 163° |
| 2026-05-03 21:41 | 26.07183 | -80.14743 | 10 ft | 2 kts | 163° |
| 2026-05-03 21:41 | 26.07197 | -80.14745 | 10 ft | 2 kts | 195° |
| 2026-05-03 21:41 | 26.07209 | -80.14736 | 10 ft | 2 kts | 239° |
| 2026-05-03 21:41 | 26.07212 | -80.14721 | 10 ft | 2 kts | 280° |
| 2026-05-03 21:42 | 26.07209 | -80.14705 | 10 ft | 2 kts | 279° |
| 2026-05-03 21:42 | 26.07206 | -80.14688 | 10 ft | 2 kts | 279° |
| 2026-05-03 21:42 | 26.07204 | -80.14671 | 10 ft | 2 kts | 279° |
| 2026-05-03 21:42 | 26.07203 | -80.14668 | 10 ft | 0 kts | 279° |
| 2026-05-03 22:28 | 26.07208 | -80.14706 | 10 ft | 11 kts | 276° |
| 2026-05-03 22:28 | 26.07187 | -80.14786 | 10 ft | 11 kts | 226° |
| 2026-05-03 22:28 | 26.07131 | -80.14854 | 10 ft | 12 kts | 246° |
| 2026-05-03 22:29 | 26.07156 | -80.14938 | 10 ft | 10 kts | 313° |
| 2026-05-03 22:29 | 26.07160 | -80.15001 | 10 ft | 8 kts | 227° |
| 2026-05-03 22:29 | 26.07117 | -80.15050 | 10 ft | 9 kts | 226° |
| 2026-05-03 22:29 | 26.07069 | -80.15103 | 10 ft | 10 kts | 221° |
| 2026-05-03 22:30 | 26.07004 | -80.15129 | 10 ft | 10 kts | 179° |
| 2026-05-03 22:30 | 26.06939 | -80.15129 | 10 ft | 5 kts | 180° |
| 2026-05-03 22:30 | 26.06901 | -80.15130 | 10 ft | 5 kts | 180° |
| 2026-05-03 22:30 | 26.06865 | -80.15130 | 10 ft | 4 kts | 181° |
| 2026-05-03 22:31 | 26.06813 | -80.15131 | 10 ft | 3 kts | 180° |
| 2026-05-03 22:31 | 26.06804 | -80.15131 | 10 ft | 3 kts | 180° |
| 2026-05-03 22:31 | 26.06746 | -80.15131 | 10 ft | 9 kts | 180° |
| 2026-05-03 22:31 | 26.06714 | -80.15136 | 10 ft | 2 kts | 215° |
| 2026-05-03 22:32 | 26.06699 | -80.15170 | 10 ft | 9 kts | 261° |
| 2026-05-03 22:32 | 26.06695 | -80.15286 | 10 ft | 17 kts | 269° |
| 2026-05-03 22:32 | 26.06697 | -80.15408 | 10 ft | 6 kts | 270° |
| 2026-05-03 22:32 | 26.06697 | -80.15450 | 10 ft | 5 kts | 270° |
| 2026-05-03 22:33 | 26.06697 | -80.15453 | 10 ft | 0 kts | 270° |
| 2026-05-03 22:34 | 26.06697 | -80.15472 | 10 ft | 5 kts | 270° |
| 2026-05-03 22:34 | 26.06697 | -80.15530 | 10 ft | 6 kts | 270° |
| 2026-05-03 22:34 | 26.06697 | -80.15532 | 10 ft | 0 kts | 270° |
| 2026-05-03 22:41 | 26.06697 | -80.15533 | 10 ft | 0 kts | 270° |
| 2026-05-03 22:42 | 26.06697 | -80.15534 | 10 ft | 0 kts | 270° |
| 2026-05-03 22:42 | 26.06697 | -80.15540 | 10 ft | 1 kts | 270° |
| 2026-05-03 22:42 | 26.06698 | -80.15559 | 10 ft | 3 kts | 270° |
| 2026-05-03 22:42 | 26.06698 | -80.15569 | 10 ft | 1 kts | 270° |
| 2026-05-03 22:43 | 26.06698 | -80.15587 | 10 ft | 0 kts | 270° |
| 2026-05-03 22:44 | 26.06698 | -80.15600 | 10 ft | 5 kts | 271° |
| 2026-05-03 22:44 | 26.06698 | -80.15646 | 10 ft | 4 kts | 269° |
| 2026-05-03 22:44 | 26.06698 | -80.15655 | 10 ft | 0 kts | 270° |
| 2026-05-03 22:44 | 26.06698 | -80.15672 | 10 ft | 3 kts | 270° |
| 2026-05-03 22:45 | 26.06698 | -80.15703 | 10 ft | 3 kts | 271° |
| 2026-05-03 22:45 | 26.06698 | -80.15710 | 10 ft | 0 kts | 270° |
| 2026-05-03 22:50 | 26.06698 | -80.15715 | 10 ft | 0 kts | 270° |
| 2026-05-03 22:50 | 26.06698 | -80.15726 | 10 ft | 1 kts | 270° |
| 2026-05-03 22:50 | 26.06699 | -80.15749 | 10 ft | 4 kts | 270° |
| 2026-05-03 22:50 | 26.06699 | -80.15762 | 10 ft | 0 kts | 270° |
| 2026-05-03 22:51 | 26.06699 | -80.15764 | 10 ft | 0 kts | 270° |
| 2026-05-03 22:51 | 26.06698 | -80.15781 | 10 ft | 3 kts | 258° |
| 2026-05-03 22:51 | 26.06688 | -80.15805 | 10 ft | 3 kts | 236° |
| 2026-05-03 22:51 | 26.06681 | -80.15813 | 10 ft | 0 kts | 214° |
| 2026-05-03 22:53 | 26.06643 | -80.15820 | 10 ft | 10 kts | 181° |
| 2026-05-03 22:53 | 26.06590 | -80.15780 | 10 ft | 3 kts | 95° |
| 2026-05-03 22:54 | 26.06589 | -80.15767 | 10 ft | 0 kts | 90° |
| 2026-05-03 22:54 | 26.06589 | -80.15701 | 10 ft | 17 kts | 89° |
| 2026-05-03 22:54 | 26.06588 | -80.15355 | 10 ft | 78 kts | 92° |
| 2026-05-03 22:55 | 26.06584 | -80.14539 | 10 ft | 130 kts | 90° |
| 2026-05-03 22:55 | 26.06571 | -80.13424 | 147 ft | 154 kts | 86° |
| 2026-05-03 22:55 | 26.06684 | -80.12103 | 147 ft | 193 kts | 65° |
| 2026-05-03 22:55 | 26.07355 | -80.10785 | 635 ft | 206 kts | 61° |
| 2026-05-03 22:56 | 26.07997 | -80.09279 | 1192 ft | 225 kts | 65° |
| 2026-05-03 22:56 | 26.08718 | -80.07665 | 1726 ft | 236 kts | 46° |
| 2026-05-03 22:56 | 26.10095 | -80.06706 | 2279 ft | 246 kts | 19° |
| 2026-05-03 22:56 | 26.11748 | -80.06046 | 2818 ft | 261 kts | 18° |
| 2026-05-03 22:57 | 26.13491 | -80.05346 | 3326 ft | 268 kts | 19° |
| 2026-05-03 22:57 | 26.15301 | -80.04815 | 3810 ft | 268 kts | 358° |
| 2026-05-03 22:57 | 26.17108 | -80.05218 | 3981 ft | 266 kts | 339° |
| 2026-05-03 22:57 | 26.18872 | -80.05901 | 3982 ft | 265 kts | 339° |
| 2026-05-03 22:58 | 26.20620 | -80.06579 | 3982 ft | 263 kts | 339° |
| 2026-05-03 22:58 | 26.22156 | -80.07606 | 4385 ft | 260 kts | 308° |
| 2026-05-03 22:58 | 26.23025 | -80.09319 | 4941 ft | 260 kts | 292° |
| 2026-05-03 22:58 | 26.23730 | -80.11163 | 5453 ft | 260 kts | 291° |
| 2026-05-03 22:59 | 26.24412 | -80.13010 | 5951 ft | 261 kts | 290° |
| 2026-05-03 22:59 | 26.25076 | -80.14808 | 6431 ft | 263 kts | 295° |
| 2026-05-03 22:59 | 26.26260 | -80.16257 | 6925 ft | 270 kts | 325° |
| 2026-05-03 22:59 | 26.27954 | -80.17263 | 7469 ft | 278 kts | 329° |
| 2026-05-03 23:00 | 26.29693 | -80.18252 | 7982 ft | 281 kts | 329° |
| 2026-05-03 23:00 | 26.31422 | -80.19231 | 8480 ft | 282 kts | 329° |
| 2026-05-03 23:00 | 26.33187 | -80.20229 | 8984 ft | 282 kts | 329° |
| 2026-05-03 23:00 | 26.34916 | -80.21208 | 9475 ft | 287 kts | 329° |
| 2026-05-03 23:01 | 26.36690 | -80.22212 | 9976 ft | 288 kts | 329° |
| 2026-05-03 23:01 | 26.38634 | -80.22855 | 10485 ft | 299 kts | 349° |
| 2026-05-03 23:01 | 26.40760 | -80.23086 | 11022 ft | 308 kts | 350° |
| 2026-05-03 23:01 | 26.42919 | -80.23312 | 11534 ft | 316 kts | 350° |
| 2026-05-03 23:02 | 26.45112 | -80.23538 | 12037 ft | 324 kts | 350° |
| 2026-05-03 23:02 | 26.47381 | -80.23772 | 12548 ft | 332 kts | 350° |
| 2026-05-03 23:02 | 26.49707 | -80.24011 | 13054 ft | 339 kts | 351° |
| 2026-05-03 23:02 | 26.52109 | -80.24258 | 13567 ft | 347 kts | 350° |
| 2026-05-03 23:03 | 26.54539 | -80.24508 | 14078 ft | 354 kts | 350° |
| 2026-05-03 23:03 | 26.57008 | -80.24808 | 14586 ft | 359 kts | 346° |
| 2026-05-03 23:03 | 26.59445 | -80.25216 | 15082 ft | 359 kts | 346° |
| 2026-05-03 23:03 | 26.61931 | -80.25631 | 15579 ft | 363 kts | 346° |
| 2026-05-03 23:04 | 26.64427 | -80.26047 | 15951 ft | 366 kts | 346° |
| 2026-05-03 23:04 | 26.66978 | -80.26472 | 15985 ft | 365 kts | 346° |
| 2026-05-03 23:04 | 26.69473 | -80.26887 | 15995 ft | 363 kts | 346° |
| 2026-05-03 23:04 | 26.71885 | -80.27595 | 16011 ft | 357 kts | 334° |
| 2026-05-03 23:05 | 26.74219 | -80.28565 | 16004 ft | 356 kts | 334° |
| 2026-05-03 23:05 | 26.76553 | -80.29539 | 15997 ft | 357 kts | 334° |
| 2026-05-03 23:05 | 26.78872 | -80.30508 | 15999 ft | 358 kts | 334° |
| 2026-05-03 23:05 | 26.81192 | -80.31477 | 16000 ft | 356 kts | 333° |
| 2026-05-03 23:06 | 26.83531 | -80.32457 | 15997 ft | 356 kts | 334° |
| 2026-05-03 23:06 | 26.85846 | -80.33426 | 16006 ft | 357 kts | 334° |
| 2026-05-03 23:06 | 26.88174 | -80.34401 | 15997 ft | 357 kts | 334° |
| 2026-05-03 23:06 | 26.90522 | -80.35384 | 16003 ft | 358 kts | 334° |
| 2026-05-03 23:07 | 26.92863 | -80.36365 | 16005 ft | 357 kts | 334° |
| 2026-05-03 23:07 | 26.95206 | -80.37326 | 16008 ft | 357 kts | 334° |
| 2026-05-03 23:07 | 26.97557 | -80.38274 | 16003 ft | 357 kts | 334° |
| 2026-05-03 23:07 | 26.99888 | -80.39214 | 15994 ft | 361 kts | 334° |
| 2026-05-03 23:08 | 27.02264 | -80.40173 | 16001 ft | 357 kts | 334° |
| 2026-05-03 23:08 | 27.04589 | -80.41111 | 16004 ft | 357 kts | 334° |
| 2026-05-03 23:08 | 27.06913 | -80.42049 | 15991 ft | 356 kts | 334° |
| 2026-05-03 23:08 | 27.09283 | -80.43014 | 16006 ft | 356 kts | 333° |
| 2026-05-03 23:09 | 27.11597 | -80.44033 | 16002 ft | 357 kts | 333° |
| 2026-05-03 23:09 | 27.13912 | -80.45054 | 15994 ft | 355 kts | 333° |
| 2026-05-03 23:09 | 27.16226 | -80.46075 | 15998 ft | 357 kts | 333° |
| 2026-05-03 23:09 | 27.18540 | -80.47096 | 16006 ft | 356 kts | 333° |
| 2026-05-03 23:10 | 27.20834 | -80.48110 | 16010 ft | 357 kts | 332° |
| 2026-05-03 23:10 | 27.23172 | -80.49143 | 16004 ft | 355 kts | 332° |
| 2026-05-03 23:10 | 27.25481 | -80.50163 | 15997 ft | 356 kts | 333° |
| 2026-05-03 23:10 | 27.27807 | -80.51193 | 16016 ft | 358 kts | 333° |
| 2026-05-03 23:11 | 27.30127 | -80.52219 | 16017 ft | 355 kts | 333° |
| 2026-05-03 23:11 | 27.32421 | -80.53233 | 16003 ft | 356 kts | 332° |
| 2026-05-03 23:11 | 27.34729 | -80.54256 | 16003 ft | 359 kts | 333° |
| 2026-05-03 23:11 | 27.37080 | -80.55273 | 16013 ft | 359 kts | 334° |
| 2026-05-03 23:12 | 27.39400 | -80.56192 | 16006 ft | 357 kts | 334° |
| 2026-05-03 23:12 | 27.41784 | -80.57138 | 16011 ft | 358 kts | 334° |
| 2026-05-03 23:12 | 27.44119 | -80.58067 | 16012 ft | 358 kts | 334° |
| 2026-05-03 23:12 | 27.46471 | -80.59001 | 16028 ft | 358 kts | 334° |
| 2026-05-03 23:13 | 27.48805 | -80.59929 | 16016 ft | 356 kts | 335° |
| 2026-05-03 23:13 | 27.51181 | -80.60873 | 16150 ft | 356 kts | 334° |
| 2026-05-03 23:13 | 27.53523 | -80.61806 | 16657 ft | 359 kts | 334° |
| 2026-05-03 23:13 | 27.55898 | -80.62752 | 17138 ft | 363 kts | 334° |
| 2026-05-03 23:14 | 27.58282 | -80.63701 | 17612 ft | 368 kts | 334° |
| 2026-05-03 23:14 | 27.60693 | -80.64662 | 18087 ft | 371 kts | 333° |
| 2026-05-03 23:14 | 27.63123 | -80.65631 | 18584 ft | 373 kts | 333° |
| 2026-05-03 23:14 | 27.65568 | -80.66606 | 19073 ft | 375 kts | 333° |
| 2026-05-03 23:15 | 27.68041 | -80.67593 | 19565 ft | 378 kts | 333° |
| 2026-05-03 23:15 | 27.70527 | -80.68585 | 20070 ft | 378 kts | 332° |
| 2026-05-03 23:15 | 27.73018 | -80.69580 | 20573 ft | 380 kts | 332° |
| 2026-05-03 23:15 | 27.75500 | -80.70572 | 21064 ft | 382 kts | 332° |
| 2026-05-03 23:16 | 27.78022 | -80.71581 | 21561 ft | 383 kts | 332° |
| 2026-05-03 23:16 | 27.80514 | -80.72577 | 22051 ft | 383 kts | 332° |
| 2026-05-03 23:16 | 27.83036 | -80.73586 | 22539 ft | 384 kts | 332° |
| 2026-05-03 23:16 | 27.85553 | -80.74594 | 23042 ft | 384 kts | 331° |
| 2026-05-03 23:17 | 27.88057 | -80.75597 | 23558 ft | 383 kts | 331° |
| 2026-05-03 23:17 | 27.90584 | -80.76610 | 24081 ft | 383 kts | 331° |
| 2026-05-03 23:17 | 27.93087 | -80.77614 | 24601 ft | 382 kts | 331° |
| 2026-05-03 23:17 | 27.95571 | -80.78610 | 25113 ft | 381 kts | 331° |
| 2026-05-03 23:18 | 27.98078 | -80.79617 | 25642 ft | 380 kts | 330° |
| 2026-05-03 23:18 | 28.00546 | -80.80608 | 26183 ft | 378 kts | 330° |
| 2026-05-03 23:18 | 28.03043 | -80.81611 | 26668 ft | 378 kts | 330° |
| 2026-05-03 23:18 | 28.05522 | -80.82610 | 26901 ft | 384 kts | 330° |
| 2026-05-03 23:19 | 28.08082 | -80.83639 | 27153 ft | 390 kts | 330° |
| 2026-05-03 23:19 | 28.10633 | -80.84666 | 27418 ft | 394 kts | 330° |
| 2026-05-03 23:19 | 28.13220 | -80.85708 | 27671 ft | 399 kts | 330° |
| 2026-05-03 23:19 | 28.15864 | -80.86773 | 27924 ft | 404 kts | 331° |
| 2026-05-03 23:20 | 28.18519 | -80.87843 | 28202 ft | 407 kts | 331° |
| 2026-05-03 23:20 | 28.21220 | -80.88931 | 28489 ft | 410 kts | 330° |
| 2026-05-03 23:20 | 28.23888 | -80.90008 | 28749 ft | 414 kts | 330° |
| 2026-05-03 23:20 | 28.26615 | -80.91108 | 29014 ft | 417 kts | 330° |
| 2026-05-03 23:21 | 28.29341 | -80.92209 | 29300 ft | 419 kts | 330° |
| 2026-05-03 23:21 | 28.32112 | -80.93329 | 29564 ft | 422 kts | 330° |
| 2026-05-03 23:21 | 28.34894 | -80.94454 | 29804 ft | 425 kts | 330° |
| 2026-05-03 23:21 | 28.37685 | -80.95583 | 30047 ft | 427 kts | 330° |
| 2026-05-03 23:22 | 28.43311 | -80.97860 | 30525 ft | 430 kts | 329° |
| 2026-05-03 23:22 | 28.46140 | -80.99007 | 30766 ft | 432 kts | 329° |
| 2026-05-03 23:22 | 28.48935 | -81.00140 | 31000 ft | 433 kts | 329° |
| 2026-05-03 23:23 | 28.51812 | -81.01307 | 31244 ft | 434 kts | 328° |
| 2026-05-03 23:23 | 28.54648 | -81.02458 | 31482 ft | 435 kts | 328° |
| 2026-05-03 23:23 | 28.57516 | -81.03623 | 31711 ft | 436 kts | 328° |
| 2026-05-03 23:23 | 28.60342 | -81.04771 | 31953 ft | 437 kts | 327° |
| 2026-05-03 23:24 | 28.63220 | -81.05942 | 32202 ft | 438 kts | 327° |
| 2026-05-03 23:24 | 28.66078 | -81.07104 | 32438 ft | 438 kts | 327° |
| 2026-05-03 23:24 | 28.68958 | -81.08277 | 32692 ft | 438 kts | 327° |
| 2026-05-03 23:24 | 28.71850 | -81.09455 | 32913 ft | 439 kts | 327° |
| 2026-05-03 23:25 | 28.74703 | -81.10619 | 33163 ft | 438 kts | 327° |
| 2026-05-03 23:25 | 28.77590 | -81.11795 | 33412 ft | 439 kts | 326° |
| 2026-05-03 23:25 | 28.80456 | -81.12965 | 33695 ft | 438 kts | 326° |
| 2026-05-03 23:25 | 28.83342 | -81.14144 | 33956 ft | 438 kts | 326° |
| 2026-05-03 23:26 | 28.86180 | -81.15303 | 34223 ft | 438 kts | 326° |
| 2026-05-03 23:26 | 28.89060 | -81.16480 | 34479 ft | 437 kts | 326° |
| 2026-05-03 23:26 | 28.91901 | -81.17642 | 34752 ft | 437 kts | 325° |
| 2026-05-03 23:26 | 28.94748 | -81.18808 | 35006 ft | 436 kts | 326° |
| 2026-05-03 23:27 | 28.97597 | -81.19974 | 35269 ft | 435 kts | 325° |
| 2026-05-03 23:27 | 29.00442 | -81.21140 | 35536 ft | 434 kts | 325° |
| 2026-05-03 23:27 | 29.03293 | -81.22309 | 35805 ft | 433 kts | 325° |
| 2026-05-03 23:27 | 29.06161 | -81.23486 | 36060 ft | 432 kts | 325° |
| 2026-05-03 23:28 | 29.08975 | -81.24639 | 36321 ft | 431 kts | 324° |
| 2026-05-03 23:28 | 29.11789 | -81.25796 | 36579 ft | 429 kts | 325° |
| 2026-05-03 23:28 | 29.14594 | -81.26948 | 36807 ft | 428 kts | 324° |
| 2026-05-03 23:28 | 29.17386 | -81.28097 | 37021 ft | 426 kts | 324° |
| 2026-05-03 23:29 | 29.23013 | -81.30415 | 37052 ft | 435 kts | 324° |
| 2026-05-03 23:29 | 29.28962 | -81.32416 | 37059 ft | 466 kts | 337° |
| 2026-05-03 23:30 | 29.32304 | -81.32714 | 37065 ft | 487 kts | 346° |
| 2026-05-03 23:30 | 29.35668 | -81.32819 | 37076 ft | 487 kts | 344° |
| 2026-05-03 23:30 | 29.42517 | -81.33191 | 37060 ft | 494 kts | 343° |
| 2026-05-03 23:31 | 29.49452 | -81.33596 | 37064 ft | 499 kts | 344° |
| 2026-05-03 23:31 | 29.56405 | -81.34007 | 37067 ft | 503 kts | 344° |
| 2026-05-03 23:32 | 29.63398 | -81.34420 | 37064 ft | 505 kts | 344° |
| 2026-05-03 23:32 | 29.70529 | -81.34841 | 37061 ft | 507 kts | 344° |
| 2026-05-03 23:33 | 29.77550 | -81.35257 | 37075 ft | 504 kts | 344° |
| 2026-05-03 23:33 | 29.84616 | -81.35677 | 37071 ft | 509 kts | 344° |
| 2026-05-03 23:34 | 29.91626 | -81.36092 | 37080 ft | 504 kts | 345° |
| 2026-05-03 23:34 | 29.98628 | -81.36510 | 37078 ft | 505 kts | 344° |
| 2026-05-03 23:35 | 30.05636 | -81.36927 | 37089 ft | 504 kts | 345° |
| 2026-05-03 23:35 | 30.12668 | -81.37347 | 37068 ft | 506 kts | 345° |
| 2026-05-03 23:36 | 30.19688 | -81.37766 | 37076 ft | 505 kts | 345° |
| 2026-05-03 23:36 | 30.26721 | -81.38187 | 37080 ft | 504 kts | 345° |
| 2026-05-03 23:37 | 30.33728 | -81.38608 | 37070 ft | 505 kts | 345° |
| 2026-05-03 23:37 | 30.40755 | -81.39030 | 37088 ft | 506 kts | 345° |
| 2026-05-03 23:38 | 30.47821 | -81.39442 | 37099 ft | 507 kts | 346° |
| 2026-05-03 23:38 | 30.54871 | -81.39812 | 37103 ft | 507 kts | 346° |
| 2026-05-03 23:39 | 30.61881 | -81.40184 | 37104 ft | 507 kts | 346° |
| 2026-05-03 23:39 | 30.68944 | -81.40556 | 37102 ft | 504 kts | 346° |
| 2026-05-03 23:40 | 30.75976 | -81.40929 | 37102 ft | 505 kts | 346° |
| 2026-05-03 23:40 | 30.83043 | -81.41306 | 37100 ft | 507 kts | 346° |
| 2026-05-03 23:41 | 30.90104 | -81.41681 | 37108 ft | 505 kts | 346° |
| 2026-05-03 23:41 | 30.97128 | -81.42057 | 37102 ft | 509 kts | 346° |
| 2026-05-03 23:42 | 31.04195 | -81.42432 | 37106 ft | 503 kts | 346° |
| 2026-05-03 23:42 | 31.11219 | -81.42809 | 37103 ft | 506 kts | 346° |
| 2026-05-03 23:43 | 31.18298 | -81.43188 | 37100 ft | 506 kts | 347° |
| 2026-05-03 23:43 | 31.25375 | -81.43050 | 37102 ft | 521 kts | 359° |
| 2026-05-03 23:44 | 31.28980 | -81.42168 | 37105 ft | 534 kts | 7° |
| 2026-05-03 23:44 | 31.32530 | -81.40702 | 37116 ft | 539 kts | 13° |
| 2026-05-03 23:44 | 31.39573 | -81.37739 | 37104 ft | 538 kts | 11° |
| 2026-05-03 23:45 | 31.46637 | -81.34854 | 37109 ft | 538 kts | 11° |
| 2026-05-03 23:45 | 31.53705 | -81.31968 | 37107 ft | 537 kts | 11° |
| 2026-05-03 23:46 | 31.60722 | -81.29099 | 37055 ft | 534 kts | 11° |
| 2026-05-03 23:46 | 31.67737 | -81.26228 | 37110 ft | 537 kts | 11° |
| 2026-05-03 23:47 | 31.74808 | -81.23326 | 37122 ft | 535 kts | 11° |
| 2026-05-03 23:47 | 31.81838 | -81.20438 | 37120 ft | 533 kts | 11° |
| 2026-05-03 23:48 | 31.88868 | -81.17547 | 37118 ft | 536 kts | 11° |
| 2026-05-03 23:48 | 31.95896 | -81.14649 | 37108 ft | 533 kts | 11° |
| 2026-05-03 23:49 | 32.02902 | -81.11758 | 37109 ft | 532 kts | 11° |
| 2026-05-03 23:49 | 32.09957 | -81.08841 | 37118 ft | 535 kts | 11° |
| 2026-05-03 23:50 | 32.16915 | -81.05959 | 37108 ft | 531 kts | 11° |
| 2026-05-03 23:50 | 32.23943 | -81.03043 | 37109 ft | 531 kts | 11° |
| 2026-05-03 23:51 | 32.30929 | -81.00141 | 37108 ft | 532 kts | 11° |
| 2026-05-03 23:51 | 32.37920 | -80.97231 | 37110 ft | 529 kts | 11° |
| 2026-05-03 23:52 | 32.44864 | -80.94338 | 37106 ft | 532 kts | 11° |
| 2026-05-03 23:52 | 32.51864 | -80.91414 | 37111 ft | 532 kts | 11° |
| 2026-05-03 23:53 | 32.58818 | -80.88504 | 37108 ft | 529 kts | 11° |
| 2026-05-03 23:53 | 32.65823 | -80.85571 | 37111 ft | 531 kts | 12° |
| 2026-05-03 23:54 | 32.72747 | -80.82430 | 37108 ft | 537 kts | 19° |
| 2026-05-03 23:54 | 32.79339 | -80.78186 | 37111 ft | 542 kts | 22° |
| 2026-05-03 23:55 | 32.85945 | -80.73896 | 37074 ft | 539 kts | 21° |
| 2026-05-03 23:55 | 32.89224 | -80.71766 | 36755 ft | 541 kts | 22° |
| 2026-05-03 23:55 | 32.92563 | -80.69592 | 36459 ft | 540 kts | 22° |
| 2026-05-03 23:56 | 32.95841 | -80.67458 | 36174 ft | 539 kts | 22° |
| 2026-05-03 23:56 | 32.99110 | -80.65327 | 35907 ft | 537 kts | 22° |
| 2026-05-03 23:56 | 33.02373 | -80.63200 | 35677 ft | 536 kts | 22° |
| 2026-05-03 23:56 | 33.05634 | -80.61071 | 35458 ft | 538 kts | 22° |
| 2026-05-03 23:57 | 33.08955 | -80.58901 | 35228 ft | 538 kts | 22° |
| 2026-05-03 23:57 | 33.12232 | -80.56759 | 34993 ft | 538 kts | 22° |
| 2026-05-03 23:57 | 33.15482 | -80.54631 | 34753 ft | 538 kts | 22° |
| 2026-05-03 23:57 | 33.18787 | -80.52466 | 34512 ft | 536 kts | 22° |
| 2026-05-03 23:58 | 33.22048 | -80.50327 | 34197 ft | 531 kts | 22° |
| 2026-05-03 23:58 | 33.25266 | -80.48216 | 33822 ft | 526 kts | 22° |
| 2026-05-03 23:58 | 33.28447 | -80.46127 | 33425 ft | 521 kts | 22° |
| 2026-05-03 23:58 | 33.31566 | -80.44076 | 33035 ft | 516 kts | 22° |
| 2026-05-03 23:59 | 33.34708 | -80.42010 | 32637 ft | 511 kts | 22° |
| 2026-05-03 23:59 | 33.37803 | -80.39972 | 32251 ft | 504 kts | 22° |
| 2026-05-03 23:59 | 33.40852 | -80.37963 | 31864 ft | 500 kts | 22° |
| 2026-05-03 23:59 | 33.43877 | -80.35968 | 31447 ft | 496 kts | 22° |
| 2026-05-04 00:00 | 33.46912 | -80.33966 | 30905 ft | 492 kts | 23° |
| 2026-05-04 00:00 | 33.49865 | -80.32015 | 30553 ft | 483 kts | 23° |
| 2026-05-04 00:00 | 33.52814 | -80.30067 | 30268 ft | 481 kts | 23° |
| 2026-05-04 00:00 | 33.55745 | -80.28127 | 29985 ft | 478 kts | 23° |
| 2026-05-04 00:01 | 33.58611 | -80.26230 | 29705 ft | 475 kts | 23° |
| 2026-05-04 00:01 | 33.61507 | -80.24309 | 29411 ft | 473 kts | 23° |
| 2026-05-04 00:01 | 33.64377 | -80.22403 | 29125 ft | 468 kts | 23° |
| 2026-05-04 00:01 | 33.67218 | -80.20515 | 28739 ft | 468 kts | 23° |
| 2026-05-04 00:02 | 33.70042 | -80.18637 | 28350 ft | 466 kts | 24° |
| 2026-05-04 00:02 | 33.72862 | -80.16760 | 27949 ft | 461 kts | 24° |
| 2026-05-04 00:02 | 33.75663 | -80.14895 | 27352 ft | 457 kts | 24° |
| 2026-05-04 00:02 | 33.78396 | -80.13074 | 26668 ft | 448 kts | 24° |
| 2026-05-04 00:03 | 33.81139 | -80.11245 | 26009 ft | 441 kts | 24° |
| 2026-05-04 00:03 | 33.83791 | -80.09476 | 25353 ft | 437 kts | 24° |
| 2026-05-04 00:03 | 33.86403 | -80.07732 | 24717 ft | 431 kts | 24° |
| 2026-05-04 00:03 | 33.89030 | -80.05976 | 24076 ft | 426 kts | 24° |
| 2026-05-04 00:04 | 33.91583 | -80.04269 | 23444 ft | 419 kts | 24° |
| 2026-05-04 00:04 | 33.94133 | -80.02563 | 22791 ft | 414 kts | 24° |
| 2026-05-04 00:04 | 33.96634 | -80.00888 | 22153 ft | 411 kts | 24° |
| 2026-05-04 00:04 | 33.99202 | -79.99702 | 21521 ft | 394 kts | 2° |
| 2026-05-04 00:05 | 34.01865 | -79.99829 | 21175 ft | 373 kts | 340° |
| 2026-05-04 00:05 | 34.04281 | -80.00832 | 20725 ft | 368 kts | 332° |
| 2026-05-04 00:05 | 34.06608 | -80.02076 | 20346 ft | 364 kts | 330° |
| 2026-05-04 00:05 | 34.08897 | -80.03378 | 19971 ft | 361 kts | 329° |
| 2026-05-04 00:06 | 34.11157 | -80.04693 | 19585 ft | 358 kts | 329° |
| 2026-05-04 00:06 | 34.13390 | -80.06003 | 19212 ft | 357 kts | 329° |
| 2026-05-04 00:06 | 34.15625 | -80.07319 | 18820 ft | 354 kts | 329° |
| 2026-05-04 00:06 | 34.17818 | -80.08612 | 18441 ft | 351 kts | 329° |
| 2026-05-04 00:07 | 34.20006 | -80.09904 | 18045 ft | 349 kts | 329° |
| 2026-05-04 00:07 | 34.22176 | -80.11186 | 17679 ft | 348 kts | 329° |
| 2026-05-04 00:07 | 34.24352 | -80.12472 | 17295 ft | 344 kts | 329° |
| 2026-05-04 00:07 | 34.26489 | -80.13736 | 16924 ft | 342 kts | 329° |
| 2026-05-04 00:08 | 34.28616 | -80.14994 | 16506 ft | 339 kts | 330° |
| 2026-05-04 00:08 | 34.30739 | -80.16251 | 16166 ft | 338 kts | 330° |
| 2026-05-04 00:08 | 34.32835 | -80.17493 | 16088 ft | 337 kts | 330° |
| 2026-05-04 00:08 | 34.34947 | -80.18745 | 16071 ft | 338 kts | 330° |
| 2026-05-04 00:09 | 34.37062 | -80.20000 | 16067 ft | 338 kts | 330° |
| 2026-05-04 00:09 | 34.39157 | -80.21242 | 16009 ft | 337 kts | 330° |
| 2026-05-04 00:09 | 34.41275 | -80.22501 | 16013 ft | 338 kts | 330° |
| 2026-05-04 00:09 | 34.43387 | -80.23756 | 15881 ft | 338 kts | 330° |
| 2026-05-04 00:10 | 34.45481 | -80.25001 | 15552 ft | 337 kts | 330° |
| 2026-05-04 00:10 | 34.47602 | -80.26262 | 15106 ft | 333 kts | 330° |
| 2026-05-04 00:10 | 34.49634 | -80.27471 | 14626 ft | 324 kts | 330° |
| 2026-05-04 00:10 | 34.51626 | -80.28657 | 14112 ft | 315 kts | 331° |
| 2026-05-04 00:11 | 34.53580 | -80.29823 | 13592 ft | 310 kts | 331° |
| 2026-05-04 00:11 | 34.55497 | -80.30965 | 13087 ft | 308 kts | 331° |
| 2026-05-04 00:11 | 34.57411 | -80.32107 | 12585 ft | 306 kts | 331° |
| 2026-05-04 00:11 | 34.59324 | -80.33250 | 12102 ft | 303 kts | 331° |
| 2026-05-04 00:12 | 34.61098 | -80.34544 | 11911 ft | 296 kts | 321° |
| 2026-05-04 00:12 | 34.62689 | -80.36069 | 11641 ft | 282 kts | 320° |
| 2026-05-04 00:12 | 34.64189 | -80.37513 | 11372 ft | 274 kts | 320° |
| 2026-05-04 00:12 | 34.65672 | -80.38941 | 11116 ft | 272 kts | 320° |
| 2026-05-04 00:13 | 34.67165 | -80.40379 | 11018 ft | 272 kts | 320° |
| 2026-05-04 00:13 | 34.68641 | -80.41801 | 11009 ft | 272 kts | 320° |
| 2026-05-04 00:13 | 34.70129 | -80.43257 | 10973 ft | 275 kts | 320° |
| 2026-05-04 00:13 | 34.71616 | -80.44715 | 10586 ft | 275 kts | 320° |
| 2026-05-04 00:14 | 34.73109 | -80.46178 | 10202 ft | 273 kts | 320° |
| 2026-05-04 00:14 | 34.74567 | -80.47609 | 9801 ft | 271 kts | 320° |
| 2026-05-04 00:14 | 34.76024 | -80.49039 | 9349 ft | 269 kts | 320° |
| 2026-05-04 00:14 | 34.77461 | -80.50449 | 8895 ft | 267 kts | 320° |
| 2026-05-04 00:15 | 34.78905 | -80.51868 | 8449 ft | 267 kts | 320° |
| 2026-05-04 00:15 | 34.80356 | -80.53295 | 8049 ft | 263 kts | 320° |
| 2026-05-04 00:15 | 34.81769 | -80.54688 | 8009 ft | 261 kts | 320° |
| 2026-05-04 00:15 | 34.83181 | -80.56082 | 7997 ft | 264 kts | 320° |
| 2026-05-04 00:16 | 34.84626 | -80.57510 | 7860 ft | 269 kts | 320° |
| 2026-05-04 00:16 | 34.86080 | -80.58948 | 7297 ft | 271 kts | 320° |
| 2026-05-04 00:16 | 34.87519 | -80.60371 | 6770 ft | 269 kts | 320° |
| 2026-05-04 00:16 | 34.88670 | -80.62117 | 6236 ft | 266 kts | 291° |
| 2026-05-04 00:17 | 34.88797 | -80.64291 | 6047 ft | 259 kts | 263° |
| 2026-05-04 00:17 | 34.88470 | -80.66407 | 5988 ft | 247 kts | 260° |
| 2026-05-04 00:17 | 34.88132 | -80.68395 | 5976 ft | 228 kts | 260° |
| 2026-05-04 00:17 | 34.87814 | -80.70207 | 5972 ft | 219 kts | 259° |
| 2026-05-04 00:18 | 34.87431 | -80.72014 | 5996 ft | 223 kts | 244° |
| 2026-05-04 00:18 | 34.86300 | -80.73307 | 6029 ft | 232 kts | 203° |
| 2026-05-04 00:18 | 34.84713 | -80.73768 | 6029 ft | 236 kts | 192° |
| 2026-05-04 00:18 | 34.83107 | -80.74103 | 6010 ft | 235 kts | 192° |
| 2026-05-04 00:19 | 34.81491 | -80.74433 | 6006 ft | 235 kts | 192° |
| 2026-05-04 00:19 | 34.79870 | -80.74805 | 5996 ft | 233 kts | 202° |
| 2026-05-04 00:19 | 34.78514 | -80.75825 | 6025 ft | 230 kts | 221° |
| 2026-05-04 00:19 | 34.77288 | -80.77048 | 6007 ft | 229 kts | 222° |
| 2026-05-04 00:20 | 34.76049 | -80.78294 | 6005 ft | 229 kts | 222° |
| 2026-05-04 00:20 | 34.74836 | -80.79524 | 6005 ft | 229 kts | 222° |
| 2026-05-04 00:20 | 34.73605 | -80.80761 | 6003 ft | 229 kts | 222° |
| 2026-05-04 00:20 | 34.72689 | -80.82291 | 6018 ft | 223 kts | 259° |
| 2026-05-04 00:21 | 34.72839 | -80.84130 | 6043 ft | 221 kts | 300° |
| 2026-05-04 00:21 | 34.73953 | -80.85338 | 6047 ft | 222 kts | 338° |
| 2026-05-04 00:21 | 34.75430 | -80.85891 | 6024 ft | 223 kts | 341° |
| 2026-05-04 00:21 | 34.76736 | -80.86842 | 6028 ft | 220 kts | 319° |
| 2026-05-04 00:22 | 34.77927 | -80.88015 | 6009 ft | 220 kts | 321° |
| 2026-05-04 00:22 | 34.79139 | -80.89145 | 6010 ft | 220 kts | 322° |
| 2026-05-04 00:22 | 34.80381 | -80.90267 | 6011 ft | 220 kts | 322° |
| 2026-05-04 00:22 | 34.81622 | -80.91362 | 6006 ft | 221 kts | 327° |
| 2026-05-04 00:23 | 34.83079 | -80.91875 | 6028 ft | 223 kts | 353° |
| 2026-05-04 00:23 | 34.84631 | -80.92027 | 6003 ft | 224 kts | 353° |
| 2026-05-04 00:23 | 34.86200 | -80.92171 | 5990 ft | 224 kts | 354° |
| 2026-05-04 00:23 | 34.87738 | -80.92310 | 5984 ft | 223 kts | 354° |
| 2026-05-04 00:24 | 34.89340 | -80.92455 | 6234 ft | 235 kts | 354° |
| 2026-05-04 00:24 | 34.90932 | -80.92595 | 6165 ft | 224 kts | 354° |
| 2026-05-04 00:24 | 34.92475 | -80.92726 | 5838 ft | 222 kts | 354° |
| 2026-05-04 00:24 | 34.94005 | -80.92856 | 5575 ft | 215 kts | 353° |
| 2026-05-04 00:25 | 34.95471 | -80.92986 | 5378 ft | 211 kts | 354° |
| 2026-05-04 00:25 | 34.96946 | -80.93115 | 5176 ft | 211 kts | 354° |
| 2026-05-04 00:25 | 34.98389 | -80.93239 | 5132 ft | 206 kts | 354° |
| 2026-05-04 00:25 | 34.99829 | -80.93362 | 4902 ft | 208 kts | 354° |
| 2026-05-04 00:26 | 35.01282 | -80.93486 | 4620 ft | 209 kts | 353° |
| 2026-05-04 00:26 | 35.02714 | -80.93608 | 4269 ft | 201 kts | 354° |
| 2026-05-04 00:26 | 35.04082 | -80.93724 | 3915 ft | 195 kts | 354° |
| 2026-05-04 00:26 | 35.05412 | -80.93837 | 3591 ft | 188 kts | 354° |
| 2026-05-04 00:27 | 35.06696 | -80.93947 | 3311 ft | 185 kts | 354° |
| 2026-05-04 00:27 | 35.08001 | -80.94058 | 3039 ft | 187 kts | 354° |
| 2026-05-04 00:27 | 35.09304 | -80.94170 | 2785 ft | 188 kts | 354° |
| 2026-05-04 00:27 | 35.10595 | -80.94279 | 2532 ft | 186 kts | 354° |
| 2026-05-04 00:28 | 35.11865 | -80.94386 | 2276 ft | 179 kts | 353° |
| 2026-05-04 00:28 | 35.13057 | -80.94487 | 2032 ft | 164 kts | 353° |
| 2026-05-04 00:28 | 35.14147 | -80.94581 | 1810 ft | 150 kts | 352° |
| 2026-05-04 00:28 | 35.15146 | -80.94666 | 1626 ft | 134 kts | 352° |
| 2026-05-04 00:29 | 35.16045 | -80.94743 | 1456 ft | 126 kts | 351° |
| 2026-05-04 00:29 | 35.16914 | -80.94819 | 1309 ft | 126 kts | 352° |
| 2026-05-04 00:29 | 35.17802 | -80.94894 | 1150 ft | 128 kts | 352° |
| 2026-05-04 00:29 | 35.18692 | -80.94971 | 985 ft | 127 kts | 353° |
| 2026-05-04 00:30 | 35.19561 | -80.95047 | 837 ft | 125 kts | 353° |
| 2026-05-04 00:30 | 35.20425 | -80.95118 | 710 ft | 120 kts | 354° |
| 2026-05-04 00:30 | 35.21159 | -80.95186 | 709 ft | 82 kts | 358° |
| 2026-05-04 00:30 | 35.21554 | -80.95213 | 716 ft | 31 kts | 356° |
| 2026-05-04 00:31 | 35.21642 | -80.95220 | 718 ft | 7 kts | 355° |
| 2026-05-04 00:31 | 35.21726 | -80.95229 | 720 ft | 14 kts | 355° |
| 2026-05-04 00:31 | 35.21835 | -80.95224 | 722 ft | 16 kts | 24° |
| 2026-05-04 00:31 | 35.21864 | -80.95071 | 721 ft | 23 kts | 85° |
| 2026-05-04 00:32 | 35.21877 | -80.94862 | 722 ft | 25 kts | 85° |
| 2026-05-04 00:32 | 35.21834 | -80.94723 | 721 ft | 16 kts | 174° |
| 2026-05-04 00:32 | 35.21693 | -80.94713 | 716 ft | 23 kts | 173° |
| 2026-05-04 00:32 | 35.21603 | -80.94641 | 713 ft | 14 kts | 90° |
| 2026-05-04 00:33 | 35.21613 | -80.94503 | 716 ft | 18 kts | 81° |
| 2026-05-04 00:33 | 35.21770 | -80.94415 | 720 ft | 13 kts | 305° |
| 2026-05-04 00:33 | 35.21791 | -80.94478 | 720 ft | 2 kts | 289° |
| 2026-05-04 00:34 | 35.21791 | -80.94479 | 720 ft | 0 kts | 289° |